Time;durP1;ratioP1;P1;durP2;ratioP2;P2;SDS_P1;SDS_P2;PMS_P1;PMS_P2;Temp;Humidity;BMP_temperature;BMP_pressure;BME280_temperature;BME280_humidity;BME280_pressure;Samples;Min_cycle;Max_cycle;Signal;HPM_P1;HPM_P2
2022/02/02 00:02:09;;;;;;;3.03;2.80;;;3.50;99.90;;;;;;6313375;22;20468;-84
2022/02/02 00:04:41;;;;;;;2.60;1.97;;;3.50;99.90;;;;;;6313214;22;20191;-83
2022/02/02 00:07:27;;;;;;;2.77;2.57;;;3.60;99.90;;;;;;6312800;22;20573;-83
2022/02/02 00:10:00;;;;;;;2.50;2.30;;;3.60;99.90;;;;;;6313065;22;20563;-84
2022/02/02 00:12:46;;;;;;;2.50;2.30;;;3.60;99.90;;;;;;6312779;22;20242;-84
2022/02/02 00:15:29;;;;;;;2.80;2.60;;;3.60;99.90;;;;;;6293897;22;20250;-83
2022/02/02 00:20:58;;;;;;;2.43;2.23;;;4.10;99.90;;;;;;6233616;22;20151;-84
2022/02/02 00:23:30;;;;;;;1.90;1.80;;;3.70;99.90;;;;;;6281671;22;20644;-83
2022/02/02 00:26:02;;;;;;;2.20;2.00;;;3.70;99.90;;;;;;6281620;22;20143;-83
2022/02/02 00:28:33;;;;;;;2.67;2.47;;;3.80;99.90;;;;;;6281710;22;20583;-84
2022/02/02 00:31:03;;;;;;;2.30;2.10;;;3.80;99.90;;;;;;6282239;22;20161;-82
2022/02/02 00:33:34;;;;;;;2.50;2.17;;;3.70;99.90;;;;;;6254860;22;20569;-83
2022/02/02 00:36:17;;;;;;;2.37;2.17;;;3.70;99.90;;;;;;6279593;22;20635;-84
2022/02/02 00:38:43;;;;;;;2.50;2.30;;;3.70;99.90;;;;;;6279761;22;20133;-84
2022/02/02 00:41:08;;;;;;;2.37;2.17;;;4.30;99.90;;;;;;6279634;22;20172;-85
2022/02/02 00:43:40;;;;;;;2.57;2.37;;;3.70;99.90;;;;;;6252244;22;20692;-84
2022/02/02 00:46:05;;;;;;;1.90;1.80;;;3.70;99.90;;;;;;6279087;22;20141;-84
2022/02/02 00:48:35;;;;;;;2.43;2.23;;;3.80;99.90;;;;;;6279744;22;20190;-83
2022/02/02 00:51:01;;;;;;;1.77;1.67;;;3.80;99.90;;;;;;6279769;22;20255;-84
2022/02/02 00:53:26;;;;;;;1.87;1.70;;;3.80;99.90;;;;;;6251799;22;20156;-84
2022/02/02 00:55:54;;;;;;;2.07;1.30;;;3.90;99.90;;;;;;6252493;22;20176;-84
2022/02/02 00:58:21;;;;;;;1.30;1.20;;;4.20;99.90;;;;;;6279730;22;20145;-84
2022/02/02 01:00:47;;;;;;;1.33;1.07;;;4.00;99.90;;;;;;6252434;22;20157;-84
2022/02/02 01:03:13;;;;;;;0.77;0.77;;;4.00;99.90;;;;;;6280214;22;20178;-84
2022/02/02 01:05:38;;;;;;;1.03;1.03;;;4.20;99.90;;;;;;6253136;22;20687;-84
2022/02/02 01:10:42;;;;;;;0.93;0.90;;;4.10;99.90;;;;;;6291797;22;20204;-84
2022/02/02 01:18:34;;;;;;;0.80;0.80;;;4.10;99.90;;;;;;6281694;22;20160;-84
2022/02/02 01:21:03;;;;;;;0.70;0.70;;;4.10;99.90;;;;;;6282152;22;20163;-84
2022/02/02 01:28:43;;;;;;;0.83;0.83;;;4.20;99.90;;;;;;6282497;22;20143;-84
2022/02/02 01:31:11;;;;;;;1.20;0.90;;;4.20;99.90;;;;;;6254244;22;20232;-84
2022/02/02 01:33:38;;;;;;;1.10;1.00;;;4.20;99.90;;;;;;6282179;22;20169;-84
2022/02/02 01:36:05;;;;;;;0.90;0.90;;;4.30;99.90;;;;;;6281545;22;20145;-84
2022/02/02 01:38:32;;;;;;;1.13;0.90;;;4.40;99.90;;;;;;6280930;22;20145;-84
2022/02/02 01:41:11;;;;;;;0.53;0.53;;;5.20;99.90;;;;;;6281483;22;20223;-84
2022/02/02 01:43:45;;;;;;;0.90;0.90;;;4.40;99.90;;;;;;6281776;22;20172;-84
2022/02/02 01:46:14;;;;;;;1.10;1.00;;;4.50;99.90;;;;;;6254255;22;20151;-84
2022/02/02 01:48:51;;;;;;;1.20;1.00;;;4.20;99.90;;;;;;6255382;22;20199;-84
2022/02/02 01:53:53;;;;;;;1.00;0.90;;;4.50;99.90;;;;;;6281747;22;20653;-84
2022/02/02 01:56:19;;;;;;;0.80;0.80;;;4.40;99.90;;;;;;6254232;22;20146;-84
2022/02/02 01:59:00;;;;;;;2.07;1.20;;;4.40;99.90;;;;;;6253010;22;20601;-83
2022/02/02 02:01:28;;;;;;;1.70;1.60;;;4.40;99.90;;;;;;6279447;22;20220;-84
2022/02/02 02:03:54;;;;;;;1.90;1.70;;;4.30;99.90;;;;;;6278591;22;20478;-84
2022/02/02 02:06:20;;;;;;;2.03;1.80;;;4.30;99.90;;;;;;6279076;22;20152;-84
2022/02/02 02:08:46;;;;;;;2.07;1.87;;;4.30;99.90;;;;;;6279998;22;20214;-85
2022/02/02 02:11:20;;;;;;;1.90;1.80;;;4.30;99.90;;;;;;6252106;22;20641;-84
2022/02/02 02:16:24;;;;;;;1.63;1.53;;;4.30;99.90;;;;;;6279960;22;20459;-84
2022/02/02 02:18:56;;;;;;;1.47;1.33;;;4.30;99.90;;;;;;6254210;22;20152;-84
2022/02/02 02:21:22;;;;;;;1.37;1.27;;;4.40;99.90;;;;;;6253769;22;20169;-84
2022/02/02 02:23:49;;;;;;;1.30;1.20;;;4.40;99.90;;;;;;6281866;22;20175;-83
2022/02/02 02:26:23;;;;;;;1.33;1.00;;;4.40;99.90;;;;;;6255910;22;20221;-85
2022/02/02 02:39:49;;;;;;;1.23;1.13;;;4.50;99.90;;;;;;6294593;22;20163;-84
2022/02/02 02:55:57;;;;;;;1.10;1.00;;;4.60;99.90;;;;;;6281770;22;20137;-84
2022/02/02 04:03:42;;;;;;;2.00;1.80;;;5.20;99.90;;;;;;6293228;22;20144;-84
2022/02/02 04:06:11;;;;;;;1.40;1.30;;;5.20;99.90;;;;;;6283863;22;20137;-82
2022/02/02 04:08:39;;;;;;;1.90;1.80;;;5.20;99.90;;;;;;6283261;22;20146;-84
2022/02/02 04:15:01;;;;;;;1.50;1.40;;;5.10;99.90;;;;;;6270877;22;20213;-84
2022/02/02 04:51:31;;;;;;;1.67;1.53;;;5.30;99.90;;;;;;6282701;22;20223;-84
2022/02/02 04:55:25;;;;;;;3.23;1.87;;;5.40;99.90;;;;;;6285056;22;20504;-84
2022/02/02 04:58:20;;;;;;;1.93;1.70;;;5.40;99.90;;;;;;6234600;22;20661;-84
2022/02/02 05:01:35;;;;;;;2.50;1.40;;;5.50;99.90;;;;;;6281626;22;20588;-85
2022/02/02 05:08:50;;;;;;;2.83;1.33;;;5.70;99.90;;;;;;6291352;22;20140;-84
2022/02/02 05:53:39;;;;;;;3.87;2.00;;;5.30;99.90;;;;;;6284799;22;20655;-84
2022/02/02 05:56:06;;;;;;;2.90;2.10;;;5.60;99.90;;;;;;6257239;22;20174;-84
2022/02/02 05:58:37;;;;;;;4.33;2.27;;;5.90;99.90;;;;;;6284459;22;20566;-84
2022/02/02 06:01:03;;;;;;;2.67;1.90;;;6.00;99.90;;;;;;6256809;22;20179;-84
2022/02/02 06:03:51;;;;;;;4.67;1.93;;;6.00;99.90;;;;;;6283361;22;20513;-85
2022/02/02 06:06:18;;;;;;;4.77;2.40;;;5.60;99.90;;;;;;6258470;22;20149;-85
2022/02/02 06:08:46;;;;;;;4.97;2.20;;;5.60;99.90;;;;;;6284030;22;20203;-84
2022/02/02 06:11:15;;;;;;;4.53;2.10;;;6.10;99.90;;;;;;6256833;22;20157;-84
2022/02/02 06:13:45;;;;;;;2.20;1.60;;;5.70;99.90;;;;;;6256463;22;20177;-85
2022/02/02 06:16:11;;;;;;;3.40;1.90;;;5.70;99.90;;;;;;6283760;22;20245;-84
2022/02/02 06:18:38;;;;;;;4.83;2.10;;;6.20;99.90;;;;;;6283060;22;20177;-85
2022/02/02 06:21:06;;;;;;;3.73;1.83;;;5.70;99.90;;;;;;6256983;22;20184;-84
2022/02/02 06:23:40;;;;;;;4.53;2.40;;;5.70;99.90;;;;;;6257053;22;20159;-84
2022/02/02 06:26:16;;;;;;;2.93;1.93;;;5.70;99.90;;;;;;6282828;22;20135;-85
2022/02/02 06:28:44;;;;;;;4.37;1.67;;;5.70;99.90;;;;;;6283159;22;20217;-84
2022/02/02 06:31:12;;;;;;;3.83;1.90;;;5.80;99.90;;;;;;6284324;22;20171;-85
2022/02/02 06:33:39;;;;;;;3.20;1.90;;;5.70;99.90;;;;;;6284232;22;20172;-84
2022/02/02 06:36:09;;;;;;;5.23;2.20;;;5.90;99.90;;;;;;6283590;22;20146;-85
2022/02/02 06:38:38;;;;;;;4.90;2.20;;;6.30;99.90;;;;;;6255946;22;20154;-84
2022/02/02 06:41:05;;;;;;;2.50;1.70;;;5.80;99.90;;;;;;6256321;22;20191;-84
2022/02/02 06:43:31;;;;;;;2.50;1.80;;;5.80;99.90;;;;;;6283611;22;20150;-84
2022/02/02 06:46:00;;;;;;;6.53;1.90;;;5.80;99.90;;;;;;6231304;22;20170;-85
2022/02/02 06:48:28;;;;;;;4.13;1.63;;;5.80;99.90;;;;;;6283960;22;20156;-84
2022/02/02 06:51:12;;;;;;;3.53;1.43;;;5.70;99.90;;;;;;6256797;22;20237;-84
2022/02/02 06:54:11;;;;;;;3.90;1.50;;;6.00;99.90;;;;;;6283504;22;20769;-84
2022/02/02 06:56:55;;;;;;;2.27;1.20;;;5.90;99.90;;;;;;6275039;22;20158;-84
2022/02/02 06:59:40;;;;;;;2.90;1.30;;;5.80;99.90;;;;;;6256563;22;20153;-84
2022/02/02 07:08:05;;;;;;;3.67;1.10;;;5.80;99.90;;;;;;6281442;22;20138;-84
2022/02/02 07:13:54;;;;;;;2.90;1.43;;;5.90;99.90;;;;;;6286425;22;20188;-85
2022/02/02 07:16:18;;;;;;;2.33;1.43;;;6.30;99.90;;;;;;6304877;22;20487;-83
2022/02/02 07:19:02;;;;;;;2.10;1.10;;;5.90;99.90;;;;;;6312022;22;20629;-83
2022/02/02 07:24:28;;;;;;;1.50;1.30;;;5.90;99.90;;;;;;6313714;22;20187;-83
2022/02/02 07:32:14;;;;;;;3.00;1.57;;;6.30;99.90;;;;;;6313432;22;20152;-83
2022/02/02 07:37:32;;;;;;;1.90;1.37;;;5.90;99.90;;;;;;6323239;22;20145;-84
2022/02/02 07:40:01;;;;;;;2.93;1.57;;;5.90;99.90;;;;;;6284935;22;20156;-83
2022/02/02 07:42:27;;;;;;;2.70;1.87;;;5.90;99.90;;;;;;6284816;22;20643;-83
2022/02/02 07:45:02;;;;;;;5.17;1.97;;;5.90;99.90;;;;;;6313126;22;20172;-83
2022/02/02 07:47:32;;;;;;;2.63;2.00;;;5.90;99.90;;;;;;6285544;22;20229;-84
2022/02/02 07:50:02;;;;;;;3.27;1.50;;;6.30;99.90;;;;;;6311535;22;20463;-83
2022/02/02 07:52:30;;;;;;;2.27;1.60;;;6.00;99.90;;;;;;6312478;22;20226;-83
2022/02/02 07:55:00;;;;;;;4.40;1.90;;;5.80;99.90;;;;;;6285274;22;20175;-83
2022/02/02 07:57:28;;;;;;;2.63;1.80;;;6.00;99.90;;;;;;6311800;22;20154;-85
2022/02/02 08:00:02;;;;;;;3.07;1.73;;;5.90;99.90;;;;;;6312553;22;20171;-83
2022/02/02 08:02:54;;;;;;;3.67;1.80;;;6.00;99.90;;;;;;6313612;22;20218;-81
2022/02/02 08:05:20;;;;;;;4.33;2.03;;;5.90;99.90;;;;;;6283966;22;20178;-81
2022/02/02 08:10:32;;;;;;;3.57;2.00;;;6.00;99.90;;;;;;6310787;22;20585;-81
2022/02/02 08:13:04;;;;;;;5.57;2.50;;;6.00;99.90;;;;;;6309674;22;20144;-83
2022/02/02 08:15:32;;;;;;;5.30;2.27;;;6.10;99.90;;;;;;6288126;22;20180;-81
2022/02/02 08:17:58;;;;;;;3.67;1.93;;;6.00;99.90;;;;;;6278733;22;20208;-82
2022/02/02 08:20:25;;;;;;;2.03;1.50;;;6.10;99.90;;;;;;6279735;22;20162;-81
2022/02/02 08:22:51;;;;;;;1.83;1.50;;;6.10;99.90;;;;;;6279419;22;20197;-81
2022/02/02 08:25:28;;;;;;;5.43;1.70;;;6.10;99.90;;;;;;6279451;22;20666;-82
2022/02/02 08:28:02;;;;;;;6.10;2.30;;;6.10;99.90;;;;;;6279571;22;20224;-81
2022/02/02 08:30:29;;;;;;;5.83;2.43;;;6.10;99.90;;;;;;6279867;22;20512;-81
2022/02/02 08:33:01;;;;;;;6.87;1.90;;;6.10;99.90;;;;;;6279624;22;20485;-81
2022/02/02 08:35:29;;;;;;;4.30;1.70;;;6.00;99.90;;;;;;6278853;22;20618;-80
2022/02/02 08:38:04;;;;;;;3.73;1.40;;;6.00;99.90;;;;;;6252733;22;20159;-81
2022/02/02 08:43:01;;;;;;;2.00;1.43;;;6.10;99.90;;;;;;6280059;22;20186;-81
2022/02/02 08:45:31;;;;;;;3.57;1.40;;;6.10;99.90;;;;;;6279965;22;20174;-81
2022/02/02 08:48:01;;;;;;;1.90;1.43;;;6.10;99.90;;;;;;6279689;22;20162;-82
2022/02/02 08:50:40;;;;;;;2.07;1.30;;;6.10;99.90;;;;;;6252145;22;20159;-82
2022/02/02 08:53:17;;;;;;;8.20;1.63;;;6.10;99.90;;;;;;6280135;22;20140;-81
2022/02/02 08:58:42;;;;;;;2.70;1.50;;;6.20;99.90;;;;;;6222245;22;20596;-80
2022/02/02 09:01:32;;;;;;;1.80;1.10;;;6.30;99.90;;;;;;6252401;22;20152;-81
2022/02/02 09:06:38;;;;;;;1.70;1.10;;;6.40;99.90;;;;;;6280533;22;20211;-82
2022/02/02 09:09:17;;;;;;;5.73;1.73;;;6.40;99.90;;;;;;6253105;22;20588;-81
2022/02/02 09:25:56;;;;;;;3.50;1.30;;;6.60;99.90;;;;;;6244390;22;20176;-81
2022/02/02 09:34:00;;;;;;;3.83;1.60;;;6.70;99.90;;;;;;6280422;22;20221;-81
2022/02/02 09:36:29;;;;;;;1.70;1.13;;;6.70;99.90;;;;;;6280101;22;20140;-83
2022/02/02 09:38:58;;;;;;;4.30;1.70;;;6.70;99.90;;;;;;6281129;22;20694;-82
2022/02/02 09:44:00;;;;;;;6.50;1.50;;;6.60;99.90;;;;;;6289033;22;20171;-82
2022/02/02 09:46:33;;;;;;;2.33;1.27;;;6.50;99.90;;;;;;6281661;22;20234;-82
2022/02/02 09:49:08;;;;;;;5.00;1.67;;;6.50;99.90;;;;;;6281730;22;20130;-82
2022/02/02 09:51:42;;;;;;;8.70;2.00;;;6.50;99.90;;;;;;6253707;22;20576;-82
2022/02/02 10:01:57;;;;;;;3.17;1.40;;;6.50;99.90;;;;;;6284524;22;20638;-83
2022/02/02 10:07:50;;;;;;;4.30;1.90;;;6.80;99.90;;;;;;6292586;22;20576;-83
2022/02/02 10:10:23;;;;;;;2.70;1.53;;;6.70;99.90;;;;;;6281122;22;20147;-83
2022/02/02 10:15:28;;;;;;;3.30;1.90;;;6.70;99.90;;;;;;6281723;22;20188;-84
2022/02/02 10:17:59;;;;;;;4.27;1.60;;;6.80;99.90;;;;;;6281299;22;20135;-84
2022/02/02 10:20:27;;;;;;;2.83;1.37;;;6.90;99.90;;;;;;6280990;22;20159;-83
2022/02/02 10:22:57;;;;;;;5.70;2.00;;;6.90;99.90;;;;;;6253459;22;20215;-83
2022/02/02 10:25:57;;;;;;;5.73;1.63;;;7.00;99.90;;;;;;6280596;22;20164;-83
2022/02/02 10:28:27;;;;;;;2.60;1.60;;;7.10;99.90;;;;;;6254339;22;20238;-83
2022/02/02 10:31:00;;;;;;;4.20;1.53;;;7.20;99.90;;;;;;6281038;22;20469;-82
2022/02/02 10:33:30;;;;;;;6.20;1.67;;;7.40;99.90;;;;;;6253090;22;20194;-82
2022/02/02 10:36:20;;;;;;;4.13;1.67;;;7.40;99.90;;;;;;6280756;22;20141;-83
2022/02/02 10:39:06;;;;;;;4.43;2.33;;;7.30;99.90;;;;;;6281946;22;20132;-82
2022/02/02 10:41:56;;;;;;;6.80;1.40;;;7.30;99.90;;;;;;6255442;22;20167;-82
2022/02/02 10:44:29;;;;;;;7.33;1.67;;;7.20;99.90;;;;;;6281819;22;20164;-82
2022/02/02 10:47:14;;;;;;;6.70;2.20;;;7.20;99.90;;;;;;6282870;22;20573;-82
2022/02/02 10:50:05;;;;;;;6.77;2.40;;;7.60;99.90;;;;;;6255193;22;20162;-82
2022/02/02 10:59:03;;;;;;;4.63;2.30;;;7.20;99.90;;;;;;6282550;22;20143;-83
2022/02/02 11:07:01;;;;;;;4.57;1.70;;;7.20;99.90;;;;;;6282295;22;20197;-83
2022/02/02 11:09:20;;;;;;;5.17;1.63;;;7.20;99.90;;;;;;6278491;22;20157;-83
2022/02/02 11:11:51;;;;;;;4.43;1.57;;;7.30;99.90;;;;;;6281668;22;20158;-82
2022/02/02 11:14:35;;;;;;;5.00;1.40;;;7.30;99.90;;;;;;6260853;22;20189;-82
2022/02/02 11:17:25;;;;;;;3.83;1.73;;;7.30;99.90;;;;;;6312841;22;20641;-82
2022/02/02 11:19:54;;;;;;;4.90;1.90;;;7.30;99.90;;;;;;6284994;22;20223;-82
2022/02/02 11:22:22;;;;;;;2.83;1.60;;;7.30;99.90;;;;;;6285181;22;20683;-82
2022/02/02 11:24:48;;;;;;;2.83;1.43;;;7.40;99.90;;;;;;6309069;22;20175;-84
2022/02/02 11:27:38;;;;;;;2.67;1.50;;;7.40;99.90;;;;;;6283799;22;20526;-82
2022/02/02 11:30:09;;;;;;;1.77;1.10;;;7.40;99.90;;;;;;6284638;22;20144;-82
2022/02/02 11:32:44;;;;;;;4.87;1.53;;;7.40;99.90;;;;;;6280282;22;20232;-85
2022/02/02 11:35:31;;;;;;;3.97;1.60;;;7.40;99.90;;;;;;6310364;22;20174;-82
2022/02/02 11:37:59;;;;;;;2.47;1.10;;;7.40;99.90;;;;;;6284792;22;20749;-83
2022/02/02 11:40:25;;;;;;;1.70;1.07;;;7.40;99.90;;;;;;6312975;22;20166;-82
2022/02/02 11:42:58;;;;;;;3.13;1.40;;;7.40;99.90;;;;;;6286772;22;20259;-82
2022/02/02 11:45:35;;;;;;;3.13;1.00;;;7.50;99.90;;;;;;6312503;22;20159;-81
2022/02/02 11:48:09;;;;;;;2.90;1.20;;;7.50;99.90;;;;;;6286373;22;20674;-80
2022/02/02 11:50:48;;;;;;;4.00;1.17;;;7.40;99.90;;;;;;6314366;22;20131;-83
2022/02/02 11:53:55;;;;;;;2.80;1.10;;;7.40;99.90;;;;;;6313955;22;20150;-82
2022/02/02 11:56:27;;;;;;;3.13;1.40;;;7.40;99.90;;;;;;6158462;23;20193;-81
2022/02/02 11:58:53;;;;;;;1.33;1.00;;;7.40;99.90;;;;;;6158126;23;20138;-83
2022/02/02 12:01:38;;;;;;;2.33;1.00;;;7.30;99.90;;;;;;6237917;22;20184;-82
2022/02/02 12:04:21;;;;;;;5.43;1.20;;;;;;;;;;6312075;22;20167;-81
2022/02/02 12:09:29;;;;;;;3.23;0.70;;;;;;;;;;6309761;22;20161;-81
2022/02/02 12:45:27;;;;;;;4.33;1.03;;;;;;;;;;6280566;22;20181;-81
2022/02/02 12:48:15;;;;;;;4.87;0.77;;;;;;;;;;6280242;22;20155;-83
2022/02/02 12:56:33;;;;;;;3.00;0.90;;;;;;;;;;6281072;22;20596;-82
2022/02/02 12:59:22;;;;;;;2.40;1.13;;;;;;;;;;6178703;22;20199;-82
2022/02/02 13:02:01;;;;;;;1.63;0.97;;;;;;;;;;6252254;22;20255;-82
2022/02/02 13:04:30;;;;;;;4.70;1.00;;;;;;;;;;6280773;22;20233;-80
2022/02/02 13:07:07;;;;;;;3.00;1.00;;;;;;;;;;6280166;22;20150;-82
2022/02/02 13:09:33;;;;;;;2.50;1.13;;;;;;;;;;6280684;22;20584;-82
2022/02/02 13:12:16;;;;;;;2.23;1.13;;;;;;;;;;6280725;22;20463;-82
2022/02/02 13:15:02;;;;;;;1.93;1.00;;;;;;;;;;6279580;22;20188;-82
2022/02/02 13:17:28;;;;;;;4.27;1.10;;;;;;;;;;6277896;22;20139;-83
2022/02/02 13:20:02;;;;;;;3.80;1.70;;;;;;;;;;6280083;22;20210;-82
2022/02/02 13:22:30;;;;;;;1.30;1.00;;;;;;;;;;6280341;22;20184;-82
2022/02/02 13:24:56;;;;;;;1.80;0.87;;;;;;;;;;6279938;22;20187;-83
2022/02/02 13:27:23;;;;;;;0.60;0.50;;;;;;;;;;6253035;22;20182;-83
2022/02/02 13:29:53;;;;;;;1.50;1.40;;;;;;;;;;6280731;22;20152;-83
2022/02/02 13:32:38;;;;;;;1.47;1.30;;;;;;;;;;6280520;22;20597;-83
2022/02/02 13:48:04;;;;;;;2.07;0.90;;;;;;;;;;6291784;22;20135;-83
2022/02/02 14:06:30;;;;;;;1.67;0.67;;;;;;;;;;6279190;22;20221;-82
2022/02/02 14:33:23;;;;;;;0.70;0.53;;;;;;;;;;6280786;22;20182;-82
2022/02/02 14:35:50;;;;;;;0.90;0.60;;;;;;;;;;6254952;22;20150;-82
2022/02/02 14:38:18;;;;;;;1.60;0.90;;;;;;;;;;6255253;22;20499;-82
2022/02/02 14:40:58;;;;;;;0.70;0.50;;;;;;;;;;6282202;22;20593;-81
2022/02/02 14:43:37;;;;;;;0.63;0.40;;;;;;;;;;6255573;22;20177;-82
2022/02/02 14:46:06;;;;;;;1.23;0.40;;;;;;;;;;6281538;22;20135;-81
2022/02/02 14:48:37;;;;;;;0.57;0.57;;;;;;;;;;6281786;22;20149;-82
2022/02/02 14:51:18;;;;;;;2.63;0.97;;;;;;;;;;6254254;22;20570;-82
2022/02/02 14:53:59;;;;;;;4.60;1.20;;;;;;;;;;6282569;22;20175;-82
2022/02/02 15:24:17;;;;;;;4.57;0.80;;;;;;;;;;6280676;22;20184;-83
2022/02/02 15:29:41;;;;;;;2.07;1.03;;;;;;;;;;6291684;22;20140;-82
2022/02/02 15:32:08;;;;;;;1.10;1.00;;;;;;;;;;6281633;22;20161;-82
2022/02/02 15:34:43;;;;;;;1.83;1.10;;;;;;;;;;6280743;22;20175;-81
2022/02/02 15:39:58;;;;;;;1.90;0.83;;;;;;;;;;6289668;22;20147;-82
2022/02/02 15:58:32;;;;;;;2.50;1.20;;;;;;;;;;6279986;22;20193;-81
2022/02/02 16:03:34;;;;;;;1.60;1.40;;;;;;;;;;6279346;22;20210;-82
2022/02/02 16:06:10;;;;;;;2.60;2.13;;;;;;;;;;6279824;22;20129;-82
2022/02/02 16:08:39;;;;;;;2.43;2.20;;;;;;;;;;6252923;22;20148;-82
2022/02/02 16:11:18;;;;;;;2.40;2.00;;;;;;;;;;6252813;22;20172;-82
2022/02/02 16:13:48;;;;;;;1.50;1.40;;;;;;;;;;6230207;22;20176;-81
2022/02/02 16:18:52;;;;;;;2.00;1.67;;;;;;;;;;6290453;22;20147;-81
2022/02/02 16:37:25;;;;;;;2.80;2.50;;;;;;;;;;6279877;22;20171;-81
2022/02/02 16:39:53;;;;;;;5.03;2.37;;;7.00;99.90;;;;;;6278157;22;20523;-81
2022/02/02 16:45:04;;;;;;;2.50;2.07;;;7.00;99.90;;;;;;6279315;22;20174;-81
2022/02/02 16:47:30;;;;;;;2.67;2.40;;;7.00;99.90;;;;;;6279730;22;20143;-81
2022/02/02 16:49:56;;;;;;;3.47;2.87;;;7.00;99.90;;;;;;6281289;22;20158;-80
2022/02/02 16:52:26;;;;;;;2.67;2.47;;;7.00;99.90;;;;;;6281327;22;20156;-82
2022/02/02 16:54:53;;;;;;;3.87;3.57;;;7.00;99.90;;;;;;6280843;22;20192;-80
2022/02/02 17:32:42;;;;;;;3.47;3.17;;;7.00;99.90;;;;;;6307986;22;20151;-79
2022/02/02 17:40:17;;;;;;;5.73;3.97;;;6.90;99.90;;;;;;6318088;22;20213;-79
2022/02/02 17:43:13;;;;;;;4.37;3.57;;;6.90;99.90;;;;;;6279422;22;20170;-79
2022/02/02 18:20:50;;;;;;;5.23;4.80;;;7.00;99.90;;;;;;6288563;22;20134;-79
2022/02/02 18:23:25;;;;;;;5.07;4.67;;;7.00;99.90;;;;;;6252005;22;20173;-79
2022/02/02 18:34:10;;;;;;;4.60;4.20;;;7.00;99.90;;;;;;6278823;22;20177;-79
2022/02/02 18:40:26;;;;;;;4.93;4.37;;;7.00;99.90;;;;;;6279007;22;20158;-79
2022/02/02 18:45:01;;;;;;;5.27;4.83;;;7.00;99.90;;;;;;6278817;22;20171;-80
2022/02/02 19:05:26;;;;;;;8.57;6.67;;;7.00;99.90;;;;;;6280917;22;20635;-80
2022/02/02 20:12:27;;;;;;;13.00;9.27;;;7.10;99.90;;;;;;6289134;22;20157;-79
2022/02/02 20:14:52;;;;;;;10.07;9.27;;;7.20;99.90;;;;;;6280250;22;20202;-82
2022/02/02 20:17:21;;;;;;;9.80;8.83;;;7.20;99.90;;;;;;6278840;22;20488;-82
2022/02/02 20:19:53;;;;;;;10.70;9.80;;;7.20;99.90;;;;;;6278263;22;20300;-82
2022/02/02 20:22:21;;;;;;;10.33;9.43;;;7.20;99.90;;;;;;6251468;22;20174;-82
2022/02/02 20:24:55;;;;;;;10.90;9.80;;;7.20;99.90;;;;;;6278964;22;20177;-82
2022/02/02 20:27:21;;;;;;;10.33;9.43;;;7.20;99.90;;;;;;6278990;22;20130;-81
2022/02/02 20:29:46;;;;;;;10.70;9.80;;;7.20;99.90;;;;;;6278883;22;20150;-80
2022/02/02 20:32:12;;;;;;;10.17;9.37;;;7.20;99.90;;;;;;6279448;22;20548;-80
2022/02/02 20:34:38;;;;;;;10.53;9.63;;;7.20;99.90;;;;;;6277838;22;20618;-82
2022/02/02 20:37:03;;;;;;;9.77;9.00;;;7.20;99.90;;;;;;6250888;22;20155;-82
2022/02/02 20:39:48;;;;;;;11.57;10.57;;;7.20;99.90;;;;;;6250570;22;20154;-80
2022/02/02 20:42:15;;;;;;;10.77;9.87;;;7.20;99.90;;;;;;6280597;22;20558;-82
2022/02/02 20:45:14;;;;;;;11.40;10.50;;;7.20;99.90;;;;;;6279611;22;20622;-83
2022/02/02 21:04:04;;;;;;;10.80;9.90;;;7.40;99.90;;;;;;6280059;22;20196;-81
2022/02/02 21:09:32;;;;;;;10.40;9.60;;;7.20;99.90;;;;;;6289762;22;20567;-81
2022/02/02 21:14:39;;;;;;;10.73;9.73;;;7.20;99.90;;;;;;6284305;22;20560;-81
2022/02/02 21:17:08;;;;;;;11.33;10.33;;;7.20;99.90;;;;;;6251072;22;20694;-82
2022/02/02 21:19:45;;;;;;;10.93;10.07;;;7.20;99.90;;;;;;6251959;22;20559;-82
2022/02/02 21:22:11;;;;;;;10.27;9.27;;;7.20;99.90;;;;;;6251910;22;20162;-81
2022/02/02 21:25:05;;;;;;;10.50;9.50;;;7.20;99.90;;;;;;6279867;22;20193;-81
2022/02/02 21:27:39;;;;;;;10.07;9.27;;;7.20;99.90;;;;;;6278802;22;20145;-81
2022/02/02 21:30:08;;;;;;;9.03;8.33;;;7.20;99.90;;;;;;6279986;22;20129;-81
2022/02/02 21:32:34;;;;;;;9.57;8.87;;;;;;;;;;6251719;22;20152;-80
2022/02/02 21:35:05;;;;;;;9.53;8.77;;;;;;;;;;6279486;22;20186;-81
2022/02/02 21:37:34;;;;;;;9.50;8.70;;;;;;;;;;6279466;22;20139;-81
2022/02/02 21:40:18;;;;;;;10.60;9.70;;;;;;;;;;6251098;22;20163;-81
2022/02/02 21:42:49;;;;;;;9.97;9.17;;;;;;;;;;6251436;22;20680;-81
2022/02/02 21:45:15;;;;;;;8.60;7.90;;;;;;;;;;6278599;22;20168;-81
2022/02/02 21:47:41;;;;;;;9.70;9.00;;;;;;;;;;6278875;22;20210;-81
2022/02/02 21:50:12;;;;;;;9.57;8.47;;;;;;;;;;6253186;22;20640;-80
2022/02/02 21:52:38;;;;;;;10.53;9.30;;;;;;;;;;6280046;22;20535;-80
2022/02/02 21:55:05;;;;;;;10.30;9.50;;;;;;;;;;6274581;22;20197;-80
2022/02/02 21:57:31;;;;;;;9.40;8.70;;;;;;;;;;6283252;22;20155;-81
2022/02/02 21:59:57;;;;;;;10.23;9.27;;;;;;;;;;6312084;22;20148;-81
2022/02/02 22:02:23;;;;;;;10.23;9.43;;;;;;;;;;6288715;22;20197;-82
2022/02/02 22:04:49;;;;;;;10.60;9.70;;;;;;;;;;6313800;22;20694;-81
2022/02/02 22:07:15;;;;;;;10.17;9.37;;;;;;;;;;6311659;22;20146;-81
2022/02/02 22:09:44;;;;;;;10.40;9.50;;;;;;;;;;6313751;22;20149;-81
2022/02/02 22:12:12;;;;;;;9.50;8.57;;;;;;;;;;6313384;22;20147;-81
2022/02/02 22:14:39;;;;;;;9.83;9.03;;;;;;;;;;6314732;22;20175;-81
2022/02/02 22:17:05;;;;;;;9.53;8.63;;;;;;;;;;6315320;22;20152;-81
2022/02/02 22:19:32;;;;;;;10.83;10.03;;;;;;;;;;6314908;22;20154;-81
2022/02/02 22:21:58;;;;;;;10.40;9.53;;;;;;;;;;6314565;22;20199;-82
2022/02/02 22:24:24;;;;;;;9.63;8.83;;;;;;;;;;6286373;22;20168;-81
2022/02/02 22:26:50;;;;;;;10.87;8.90;;;;;;;;;;6311169;22;20146;-82
2022/02/02 22:29:16;;;;;;;9.97;9.17;;;;;;;;;;6286492;22;20159;-81
2022/02/02 22:31:42;;;;;;;10.20;9.30;;;;;;;;;;6287612;22;20162;-81
2022/02/02 22:34:08;;;;;;;9.87;8.97;;;;;;;;;;6315283;22;20173;-83
2022/02/02 22:36:34;;;;;;;11.30;10.17;;;;;;;;;;6317173;22;20168;-82
2022/02/02 22:39:00;;;;;;;11.07;10.00;;;;;;;;;;6318811;22;20148;-82
2022/02/02 22:41:27;;;;;;;10.47;9.47;;;;;;;;;;6290162;22;20201;-82
2022/02/02 22:43:54;;;;;;;10.47;9.47;;;;;;;;;;6316185;22;20620;-82
2022/02/02 22:46:25;;;;;;;10.30;9.40;;;;;;;;;;6317750;22;20147;-82
2022/02/02 22:48:51;;;;;;;10.60;9.70;;;;;;;;;;6290116;22;20132;-82
2022/02/02 22:51:17;;;;;;;9.67;8.77;;;;;;;;;;6289777;22;20229;-82
2022/02/02 22:53:44;;;;;;;9.30;8.60;;;;;;;;;;6310800;22;20192;-82
2022/02/02 22:56:10;;;;;;;10.37;9.57;;;;;;;;;;6257846;22;20155;-82
2022/02/02 22:58:37;;;;;;;9.70;8.97;;;;;;;;;;6284330;22;20162;-83
2022/02/02 23:01:03;;;;;;;9.83;8.83;;;;;;;;;;6283180;22;20155;-81
2022/02/02 23:03:30;;;;;;;10.10;9.30;;;;;;;;;;6256681;22;20609;-82
2022/02/02 23:05:59;;;;;;;9.97;9.10;;;;;;;;;;6256910;22;20151;-81
2022/02/02 23:08:28;;;;;;;9.27;8.37;;;;;;;;;;6283830;22;20148;-82
2022/02/02 23:10:54;;;;;;;10.30;9.50;;;;;;;;;;6256816;22;20533;-82
2022/02/02 23:13:20;;;;;;;9.97;9.17;;;;;;;;;;6257234;22;20593;-82
2022/02/02 23:18:32;;;;;;;9.37;8.67;;;;;;;;;;6294063;22;20170;-81
2022/02/02 23:21:01;;;;;;;10.70;9.70;;;;;;;;;;6257030;22;20159;-81
2022/02/02 23:23:31;;;;;;;10.37;9.47;;;;;;;;;;6283678;22;20185;-82
2022/02/02 23:26:00;;;;;;;9.67;8.97;;;;;;;;;;6284348;22;20213;-82
2022/02/02 23:28:31;;;;;;;9.67;8.93;;;;;;;;;;6284758;22;20286;-82
2022/02/02 23:31:01;;;;;;;9.67;8.87;;;;;;;;;;6284420;22;20138;-82
2022/02/02 23:33:27;;;;;;;9.97;9.17;;;;;;;;;;6257030;22;20149;-82
2022/02/02 23:35:54;;;;;;;10.10;9.37;;;;;;;;;;6289559;22;20172;-81
2022/02/02 23:38:21;;;;;;;9.73;8.93;;;;;;;;;;6268430;22;20161;-82
2022/02/02 23:43:19;;;;;;;10.07;9.27;;;;;;;;;;6299939;22;20176;-82
2022/02/02 23:45:52;;;;;;;10.00;9.13;;;;;;;;;;6262098;22;20151;-82
2022/02/02 23:48:21;;;;;;;9.53;8.73;;;;;;;;;;6258068;22;20140;-82
2022/02/02 23:50:49;;;;;;;10.93;10.03;;;;;;;;;;6283881;22;20179;-82
2022/02/02 23:53:16;;;;;;;10.07;9.27;;;;;;;;;;6257724;22;20171;-82
2022/02/02 23:55:47;;;;;;;10.33;9.53;;;;;;;;;;6285909;22;20227;-82
2022/02/02 23:58:23;;;;;;;10.80;9.90;;;;;;;;;;6287361;22;20192;-82
